Time;durP1;ratioP1;P1;durP2;ratioP2;P2;SDS_P1;SDS_P2;PMS_P1;PMS_P2;Temp;Humidity;BMP_temperature;BMP_pressure;BME280_temperature;BME280_humidity;BME280_pressure;Samples;Min_cycle;Max_cycle;Signal;HPM_P1;HPM_P2
2021/04/21 00:05:00;;;;;;;91.10;50.97;;;;;7.80;101177.00;;;;10474169;28;20411;-74
2021/04/21 00:10:06;;;;;;;102.43;53.10;;;;;7.70;101172.00;;;;10476280;28;20288;-74
2021/04/21 00:15:12;;;;;;;95.27;52.67;;;;;7.60;101172.00;;;;10459594;28;20719;-74
2021/04/21 00:20:14;;;;;;;117.40;57.60;;;;;7.50;101174.00;;;;10475414;28;20251;-74
2021/04/21 00:25:16;;;;;;;105.93;57.40;;;;;7.50;101170.00;;;;10475311;28;20201;-74
2021/04/21 00:30:21;;;;;;;110.47;55.97;;;;;7.40;101166.00;;;;10492409;28;20743;-73
2021/04/21 00:35:29;;;;;;;113.90;57.30;;;;;7.40;101174.00;;;;10459196;28;20330;-74
2021/04/21 00:40:45;;;;;;;110.57;57.20;;;;;7.30;101167.00;;;;10446636;28;20201;-74
2021/04/21 00:45:50;;;;;;;123.33;61.03;;;;;7.30;101162.00;;;;10470108;28;20182;-74
2021/04/21 00:50:57;;;;;;;132.47;62.90;;;;;7.20;101162.00;;;;10490710;28;20209;-74
2021/04/21 00:56:06;;;;;;;115.97;59.20;;;;;7.10;101162.00;;;;10458159;28;20193;-74
2021/04/21 01:01:11;;;;;;;132.30;61.67;;;;;7.00;101157.00;;;;10458947;28;20198;-75
2021/04/21 01:06:15;;;;;;;129.83;63.63;;;;;7.00;101157.00;;;;10458841;28;20227;-75
2021/04/21 01:11:24;;;;;;;137.27;66.17;;;;;6.90;101163.00;;;;10474942;28;20252;-75
2021/04/21 01:16:48;;;;;;;137.57;65.93;;;;;6.90;101160.00;;;;10444399;28;20648;-75
2021/04/21 01:21:53;;;;;;;135.90;63.53;;;;;6.90;101152.00;;;;10475311;28;20251;-75
2021/04/21 01:27:21;;;;;;;128.97;60.73;;;;;6.90;101151.00;;;;10470679;28;20205;-75
2021/04/21 01:32:31;;;;;;;128.27;63.27;;;;;6.90;101155.00;;;;10468814;28;20213;-75
2021/04/21 01:37:36;;;;;;;129.17;61.97;;;;;7.00;101153.00;;;;10491190;28;20645;-75
2021/04/21 01:42:42;;;;;;;126.00;60.30;;;;;6.90;101156.00;;;;10441005;28;20201;-75
2021/04/21 01:47:45;;;;;;;120.70;61.40;;;;;6.90;101151.00;;;;10473735;28;20193;-75
2021/04/21 01:52:52;;;;;;;120.40;58.40;;;;;6.80;101157.00;;;;10506350;28;20313;-74
2021/04/21 01:57:56;;;;;;;125.37;60.07;;;;;6.80;101151.00;;;;10474127;28;20202;-75
2021/04/21 02:03:31;;;;;;;120.07;58.77;;;;;6.80;101158.00;;;;10481355;28;20206;-75
2021/04/21 02:08:50;;;;;;;135.73;64.77;;;;;6.90;101146.00;;;;10424621;28;20228;-74
2021/04/21 02:14:19;;;;;;;137.23;63.77;;;;;7.00;101158.00;;;;10467287;28;20198;-74
2021/04/21 02:19:26;;;;;;;137.40;66.73;;;;;7.10;101154.00;;;;10457126;28;20232;-75
2021/04/21 02:24:53;;;;;;;138.70;65.07;;;;;7.20;101152.00;;;;10471729;28;20293;-75
2021/04/21 02:30:10;;;;;;;128.83;62.83;;;;;7.20;101158.00;;;;10460392;28;20664;-75
2021/04/21 02:35:22;;;;;;;127.53;62.27;;;;;7.20;101158.00;;;;10448259;28;20255;-75
2021/04/21 02:40:45;;;;;;;131.53;62.53;;;;;7.00;101162.00;;;;10464411;28;20193;-75
2021/04/21 02:45:56;;;;;;;129.63;63.30;;;;;7.00;101164.00;;;;10479114;28;20198;-75
2021/04/21 02:51:11;;;;;;;137.83;66.67;;;;;7.00;101161.00;;;;10463271;28;20237;-75
2021/04/21 02:56:36;;;;;;;143.80;66.73;;;;;7.00;101167.00;;;;10503858;28;20262;-75
2021/04/21 03:01:59;;;;;;;137.83;65.13;;;;;7.00;101155.00;;;;10470158;28;20193;-75
2021/04/21 03:07:05;;;;;;;130.47;61.87;;;;;7.00;101158.00;;;;10437691;28;20210;-75
2021/04/21 03:12:08;;;;;;;132.93;63.60;;;;;6.90;101163.00;;;;10428888;28;20287;-74
2021/04/21 03:17:14;;;;;;;126.63;61.20;;;;;6.90;101163.00;;;;10462923;28;20704;-74
2021/04/21 03:22:18;;;;;;;127.70;63.77;;;;;6.90;101158.00;;;;10497495;28;20253;-75
2021/04/21 03:27:24;;;;;;;138.60;65.10;;;;;6.80;101164.00;;;;10494481;28;20288;-74
2021/04/21 03:32:28;;;;;;;137.83;62.50;;;;;6.80;101164.00;;;;10461126;28;20236;-74
2021/04/21 03:37:49;;;;;;;130.93;62.53;;;;;6.90;101164.00;;;;10478007;28;20204;-75
2021/04/21 03:42:51;;;;;;;122.70;59.57;;;;;6.90;101167.00;;;;10476599;28;20202;-74
2021/04/21 03:47:54;;;;;;;129.70;59.30;;;;;6.80;101169.00;;;;10460474;28;20212;-74
2021/04/21 03:53:02;;;;;;;120.23;58.87;;;;;6.80;101177.00;;;;10461210;28;20237;-74
2021/04/21 03:58:09;;;;;;;117.27;59.00;;;;;6.70;101167.00;;;;10477467;28;21073;-74
2021/04/21 04:03:15;;;;;;;112.90;56.17;;;;;6.60;101166.00;;;;10426198;28;20636;-74
2021/04/21 04:08:18;;;;;;;129.00;61.83;;;;;6.60;101169.00;;;;10476915;28;20705;-74
2021/04/21 04:13:21;;;;;;;136.50;63.77;;;;;6.60;101168.00;;;;10493007;28;20295;-74
2021/04/21 04:18:24;;;;;;;144.40;65.67;;;;;6.70;101167.00;;;;10475909;28;20198;-74
2021/04/21 04:23:29;;;;;;;131.70;63.67;;;;;6.70;101177.00;;;;10456952;28;20209;-74
2021/04/21 04:28:35;;;;;;;136.37;61.87;;;;;6.80;101167.00;;;;10534717;28;20275;-74
2021/04/21 04:33:40;;;;;;;132.53;61.00;;;;;6.90;101170.00;;;;10500994;28;20217;-75
2021/04/21 04:38:42;;;;;;;128.70;61.00;;;;;6.90;101179.00;;;;10501879;28;20197;-74
2021/04/21 04:43:45;;;;;;;127.13;62.10;;;;;7.00;101188.00;;;;10460517;28;20201;-75
2021/04/21 04:48:54;;;;;;;121.43;58.70;;;;;7.10;101186.00;;;;10447032;28;20234;-75
2021/04/21 04:53:56;;;;;;;126.90;57.97;;;;;7.10;101191.00;;;;10441295;28;20255;-75
2021/04/21 04:59:01;;;;;;;132.60;64.63;;;;;7.20;101196.00;;;;10475340;28;20664;-75
2021/04/21 05:04:02;;;;;;;126.13;59.63;;;;;7.30;101195.00;;;;10483374;28;20288;-75
2021/04/21 05:09:07;;;;;;;124.97;61.40;;;;;7.50;101200.00;;;;10474026;28;20664;-75
2021/04/21 05:14:11;;;;;;;118.97;58.77;;;;;7.60;101209.00;;;;10472324;28;20248;-75
2021/04/21 05:19:40;;;;;;;129.07;58.00;;;;;7.80;101212.00;;;;10473185;28;20216;-75
2021/04/21 05:25:13;;;;;;;111.83;58.53;;;;;8.00;101232.00;;;;10475279;28;20225;-75
2021/04/21 05:30:39;;;;;;;100.73;53.90;;;;;8.20;101220.00;;;;10455873;28;20304;-75
2021/04/21 05:36:22;;;;;;;112.53;55.27;;;;;8.40;101233.00;;;;10457589;28;20228;-75
2021/04/21 05:41:26;;;;;;;105.77;55.03;;;;;8.50;101244.00;;;;10488834;28;20668;-75
2021/04/21 05:47:16;;;;;;;111.03;56.37;;;;;8.70;101252.00;;;;10502607;28;20244;-75
2021/04/21 05:52:47;;;;;;;95.83;53.43;;;;;8.90;101257.00;;;;10490771;28;20244;-75
2021/04/21 05:58:13;;;;;;;99.53;52.67;;;;;9.00;101263.00;;;;10436331;28;20303;-75
2021/04/21 06:03:17;;;;;;;98.73;52.47;;;;;9.10;101254.00;;;;10465508;28;20288;-75
2021/04/21 06:08:19;;;;;;;94.50;51.90;;;;;9.30;101261.00;;;;10500831;28;20209;-75
2021/04/21 06:13:31;;;;;;;89.40;50.37;;;;;9.60;101264.00;;;;10468029;28;20237;-75
2021/04/21 06:18:32;;;;;;;85.30;48.97;;;;;9.80;101265.00;;;;10422888;28;20254;-75
2021/04/21 06:23:34;;;;;;;79.37;48.00;;;;;10.30;101271.00;;;;10479781;28;20664;-75
2021/04/21 06:28:35;;;;;;;78.10;46.03;;;;;10.90;101267.00;;;;10480439;28;20197;-75
2021/04/21 06:33:45;;;;;;;67.13;42.07;;;;;11.50;101278.00;;;;10470522;28;20399;-75
2021/04/21 06:38:54;;;;;;;60.97;39.27;;;;;12.10;101276.00;;;;10522727;28;20250;-75
2021/04/21 06:43:56;;;;;;;62.70;40.03;;;;;12.50;101281.00;;;;10461972;28;20734;-75
2021/04/21 06:49:00;;;;;;;59.57;37.47;;;;;12.90;101284.00;;;;10506275;28;20220;-75
2021/04/21 06:54:06;;;;;;;57.67;38.17;;;;;13.00;101278.00;;;;10459498;28;20225;-75
2021/04/21 06:59:18;;;;;;;53.07;36.50;;;;;13.20;101278.00;;;;10481413;28;20271;-75
2021/04/21 07:04:19;;;;;;;56.13;35.67;;;;;13.50;101277.00;;;;10484059;28;20200;-76
2021/04/21 07:09:23;;;;;;;47.90;33.93;;;;;13.70;101281.00;;;;10473878;28;20660;-76
2021/04/21 07:14:27;;;;;;;50.77;33.27;;;;;13.80;101281.00;;;;10448856;28;20233;-76
2021/04/21 07:19:29;;;;;;;49.57;33.87;;;;;13.90;101281.00;;;;10491272;28;20216;-75
2021/04/21 07:24:34;;;;;;;49.80;32.70;;;;;14.30;101272.00;;;;10418516;28;20202;-76
2021/04/21 07:29:36;;;;;;;45.87;33.23;;;;;14.80;101281.00;;;;10491987;28;20947;-76
2021/04/21 07:34:38;;;;;;;44.77;31.60;;;;;14.90;101287.00;;;;10475320;28;20203;-74
2021/04/21 07:39:41;;;;;;;46.03;32.37;;;;;14.80;101285.00;;;;10472124;28;20620;-76
2021/04/21 07:44:51;;;;;;;46.90;31.37;;;;;14.80;101286.00;;;;10488599;28;20210;-76
2021/04/21 07:50:03;;;;;;;47.30;31.17;;;;;14.80;101290.00;;;;10501635;28;20209;-74
2021/04/21 07:55:11;;;;;;;43.07;31.03;;;;;15.00;101288.00;;;;10482123;28;20250;-76
2021/04/21 08:00:27;;;;;;;43.53;28.33;;;;;15.30;101295.00;;;;10476605;28;20255;-76
2021/04/21 08:05:29;;;;;;;40.40;29.23;;;;;15.70;101292.00;;;;10514086;28;20216;-74
2021/04/21 08:10:36;;;;;;;44.70;30.33;;;;;16.00;101292.00;;;;10463504;28;20217;-74
2021/04/21 08:15:39;;;;;;;34.37;19.83;;;;;16.70;101282.00;;;;10475272;28;20221;-74
2021/04/21 08:20:44;;;;;;;23.27;18.17;;;;;17.20;101274.00;;;;10447637;28;20849;-74
2021/04/21 08:26:05;;;;;;;24.98;17.98;;;;;18.00;101274.00;;;;10466664;28;20561;-74
2021/04/21 08:31:07;;;;;;;23.05;17.67;;;;;18.30;101281.00;;;;10488501;28;20284;-74
2021/04/21 08:36:09;;;;;;;20.40;14.90;;;;;18.70;101281.00;;;;10495989;28;20273;-74
2021/04/21 08:41:17;;;;;;;23.83;16.90;;;;;18.70;101283.00;;;;10506537;28;20248;-75
2021/04/21 08:46:19;;;;;;;21.20;15.95;;;;;19.10;101296.00;;;;10491617;28;20201;-74
2021/04/21 08:51:22;;;;;;;21.73;15.90;;;;;19.80;101294.00;;;;10468165;28;20296;-75
2021/04/21 08:56:24;;;;;;;20.67;15.02;;;;;20.20;101302.00;;;;10433008;28;20201;-75
2021/04/21 09:01:26;;;;;;;22.40;16.55;;;;;20.70;101302.00;;;;10425120;28;20217;-75
2021/04/21 09:06:28;;;;;;;21.60;16.35;;;;;20.80;101306.00;;;;10440096;28;20814;-75
2021/04/21 09:11:29;;;;;;;23.02;16.52;;;;;20.50;101307.00;;;;10464763;28;20236;-75
2021/04/21 09:16:31;;;;;;;22.23;17.30;;;;;20.20;101305.00;;;;10458418;28;20285;-75
2021/04/21 09:21:33;;;;;;;23.80;15.93;;;;;20.50;101305.00;;;;10453195;28;20193;-76
2021/04/21 09:26:36;;;;;;;19.35;15.85;;;;;20.50;101310.00;;;;10454419;28;20193;-75
2021/04/21 09:31:38;;;;;;;18.70;14.80;;;;;20.40;101307.00;;;;10485883;28;20212;-76
2021/04/21 09:36:45;;;;;;;19.10;15.65;;;;;20.50;101306.00;;;;10480182;28;20282;-75
2021/04/21 09:41:49;;;;;;;18.27;14.95;;;;;20.20;101306.00;;;;10445691;28;20726;-76
2021/04/21 09:46:51;;;;;;;25.13;16.42;;;;;19.80;101312.00;;;;10470492;28;20204;-76
2021/04/21 09:51:52;;;;;;;19.67;15.93;;;;;20.10;101304.00;;;;10492791;28;20228;-76
2021/04/21 09:57:31;;;;;;;20.15;15.82;;;;;20.60;101304.00;;;;10446764;28;20655;-76
2021/04/21 10:02:36;;;;;;;21.45;16.05;;;;;20.80;101299.00;;;;10454091;28;20304;-75
2021/04/21 10:07:39;;;;;;;20.13;16.48;;;;;21.00;101307.00;;;;10467975;28;20211;-75
2021/04/21 10:12:40;;;;;;;22.30;16.20;;;;;21.40;101305.00;;;;10494061;28;20216;-75
2021/04/21 10:17:44;;;;;;;20.83;17.23;;;;;21.10;101306.00;;;;10478439;28;20243;-76
2021/04/21 10:22:46;;;;;;;20.15;16.23;;;;;21.20;101307.00;;;;10466277;28;20198;-76
2021/04/21 10:27:48;;;;;;;23.17;17.60;;;;;21.50;101308.00;;;;10477463;28;20201;-76
2021/04/21 10:32:49;;;;;;;22.40;17.23;;;;;22.30;101297.00;;;;10467675;28;20228;-75
2021/04/21 10:37:51;;;;;;;23.65;19.38;;;;;22.60;101311.00;;;;10460265;28;20225;-76
2021/04/21 10:42:58;;;;;;;24.02;18.50;;;;;23.00;101309.00;;;;10482930;28;20202;-76
2021/04/21 10:48:00;;;;;;;21.23;16.92;;;;;23.00;101309.00;;;;10444224;28;20718;-76
2021/04/21 10:53:03;;;;;;;25.42;19.95;;;;;23.10;101309.00;;;;10456212;28;20565;-76
2021/04/21 10:58:10;;;;;;;21.50;18.13;;;;;22.80;101310.00;;;;10447989;28;20268;-75
2021/04/21 11:03:15;;;;;;;23.60;18.48;;;;;22.90;101312.00;;;;10469433;28;20212;-76
2021/04/21 11:08:22;;;;;;;24.85;19.02;;;;;22.50;101307.00;;;;10481885;28;20221;-76
2021/04/21 11:13:23;;;;;;;23.50;19.58;;;;;22.70;101310.00;;;;10458417;28;20232;-76
2021/04/21 11:18:33;;;;;;;23.70;19.23;;;;;22.50;101297.00;;;;10486900;28;20305;-75
2021/04/21 11:23:55;;;;;;;23.48;20.63;;;;;23.30;101307.00;;;;10456482;28;20688;-75
2021/04/21 11:28:59;;;;;;;23.70;19.30;;;;;22.90;101312.00;;;;10479200;28;20817;-76
2021/04/21 11:34:00;;;;;;;23.35;19.77;;;;;23.40;101297.00;;;;10468831;28;20216;-76
2021/04/21 11:39:03;;;;;;;24.42;20.40;;;;;24.80;101290.00;;;;10455705;28;20275;-75
2021/04/21 11:44:04;;;;;;;22.55;19.98;;;;;25.00;101302.00;;;;10496531;28;20245;-76
2021/04/21 11:49:05;;;;;;;21.90;19.55;;;;;24.00;101307.00;;;;10491409;28;20197;-76
2021/04/21 11:54:07;;;;;;;22.38;19.95;;;;;23.80;101295.00;;;;10506780;28;20219;-76
2021/04/21 11:59:10;;;;;;;22.48;20.05;;;;;24.10;101289.00;;;;10434435;28;20586;-76
2021/04/21 12:04:12;;;;;;;26.90;20.50;;;;;23.50;101303.00;;;;10458554;28;20264;-76
2021/04/21 12:09:14;;;;;;;23.20;20.65;;;;;22.60;101304.00;;;;10455334;28;20224;-76
2021/04/21 12:14:17;;;;;;;22.88;19.27;;;;;22.40;101302.00;;;;10470995;28;20617;-76
2021/04/21 12:19:19;;;;;;;23.63;19.23;;;;;21.90;101305.00;;;;10483355;28;20216;-75
2021/04/21 12:24:21;;;;;;;25.30;18.27;;;;;21.80;101292.00;;;;10468062;28;20213;-76
2021/04/21 12:29:25;;;;;;;22.40;20.00;;;;;21.60;101300.00;;;;10493695;28;20259;-76
2021/04/21 12:34:27;;;;;;;23.88;19.17;;;;;21.40;101302.00;;;;10459120;28;20220;-76
2021/04/21 12:39:28;;;;;;;25.15;20.83;;;;;22.50;101305.00;;;;10500144;28;20205;-76
2021/04/21 12:44:33;;;;;;;26.63;20.75;;;;;23.00;101305.00;;;;10508584;28;20217;-76
2021/04/21 12:49:43;;;;;;;26.27;20.20;;;;;23.40;101295.00;;;;10454663;28;20592;-76
2021/04/21 12:54:47;;;;;;;21.65;19.20;;;;;23.90;101296.00;;;;10443553;28;20201;-76
2021/04/21 12:59:52;;;;;;;22.08;19.77;;;;;24.60;101296.00;;;;10455067;28;20349;-76
2021/04/21 13:04:53;;;;;;;22.98;18.80;;;;;25.10;101299.00;;;;10460089;28;20236;-76
2021/04/21 13:10:13;;;;;;;20.42;18.27;;;;;24.60;101304.00;;;;10458043;28;20225;-76
2021/04/21 13:15:20;;;;;;;20.92;18.15;;;;;24.80;101292.00;;;;10461378;28;20205;-76
2021/04/21 13:20:42;;;;;;;19.35;17.13;;;;;24.00;101298.00;;;;10496124;28;20201;-76
2021/04/21 13:26:04;;;;;;;23.08;18.75;;;;;22.60;101301.00;;;;10456424;28;20248;-76
2021/04/21 13:31:08;;;;;;;19.52;17.52;;;;;24.70;101281.00;;;;10483810;28;20217;-76
2021/04/21 13:36:11;;;;;;;17.25;14.68;;;;;26.80;101276.00;;;;10416870;28;20206;-76
2021/04/21 13:41:13;;;;;;;20.00;14.88;;;;;25.20;101276.00;;;;10476372;28;20238;-74
2021/04/21 13:46:14;;;;;;;19.58;17.27;;;;;25.40;101277.00;;;;10461659;28;20652;-75
2021/04/21 13:51:16;;;;;;;20.02;17.20;;;;;24.60;101275.00;;;;10474055;28;20213;-76
2021/04/21 13:56:17;;;;;;;20.60;16.50;;;;;26.40;101291.00;;;;10467140;28;20210;-76
2021/04/21 14:01:23;;;;;;;16.63;14.88;;;;;23.30;101285.00;;;;10472284;28;20212;-76
2021/04/21 14:06:24;;;;;;;20.45;16.85;;;;;27.30;101275.00;;;;10450537;28;20466;-76
2021/04/21 14:11:26;;;;;;;20.42;18.25;;;;;28.40;101280.00;;;;10452295;28;20228;-76
2021/04/21 14:16:27;;;;;;;22.67;17.83;;;;;24.80;101303.00;;;;10461398;28;20600;-76
2021/04/21 14:21:28;;;;;;;21.50;18.05;;;;;22.00;101299.00;;;;10439581;28;20207;-75
2021/04/21 14:26:30;;;;;;;20.90;17.52;;;;;21.30;101306.00;;;;10478234;28;20190;-75
2021/04/21 14:31:31;;;;;;;21.80;18.30;;;;;23.30;101286.00;;;;10447240;28;20283;-75
2021/04/21 14:36:34;;;;;;;23.27;19.52;;;;;26.70;101287.00;;;;10481817;28;20201;-75
2021/04/21 14:41:37;;;;;;;22.52;20.13;;;;;26.50;101298.00;;;;10472577;28;20197;-75
2021/04/21 14:46:42;;;;;;;23.42;21.08;;;;;27.50;101296.00;;;;10479841;28;20221;-75
2021/04/21 14:51:44;;;;;;;28.00;20.23;;;;;23.50;101306.00;;;;10478936;28;20296;-75
2021/04/21 14:56:47;;;;;;;26.48;21.92;;;;;24.70;101282.00;;;;10458085;28;20701;-75
2021/04/21 15:01:48;;;;;;;27.05;21.42;;;;;27.90;101282.00;;;;10412010;28;20268;-75
2021/04/21 15:06:51;;;;;;;24.65;19.05;;;;;28.20;101286.00;;;;10489997;28;20260;-75
2021/04/21 15:11:52;;;;;;;21.73;18.48;;;;;26.60;101297.00;;;;10481725;28;20629;-74
2021/04/21 15:16:55;;;;;;;21.35;17.08;;;;;23.50;101306.00;;;;10506100;28;20227;-75
2021/04/21 15:22:02;;;;;;;17.35;15.13;;;;;21.40;101302.00;;;;10464686;28;20209;-75
2021/04/21 15:27:03;;;;;;;16.98;14.32;;;;;20.60;101306.00;;;;10484253;28;20220;-75
2021/04/21 15:32:05;;;;;;;20.33;14.95;;;;;20.20;101317.00;;;;10431105;28;20220;-74
2021/04/21 15:37:08;;;;;;;21.30;13.48;;;;;21.10;101317.00;;;;10461972;28;20655;-75
2021/04/21 15:42:10;;;;;;;14.27;11.43;;;;;21.50;101317.00;;;;10466021;28;20284;-75
2021/04/21 15:47:11;;;;;;;13.23;10.02;;;;;23.70;101309.00;;;;10469579;28;20292;-75
2021/04/21 15:52:13;;;;;;;12.60;10.50;;;;;21.50;101329.00;;;;10512213;28;20217;-75
2021/04/21 15:57:14;;;;;;;11.10;8.68;;;;;19.70;101318.00;;;;10477271;28;20188;-74
2021/04/21 16:02:16;;;;;;;10.98;9.82;;;;;19.80;101322.00;;;;10480883;28;20200;-74
2021/04/21 16:07:20;;;;;;;11.85;8.95;;;;;19.90;101327.00;;;;10489117;28;20587;-74
2021/04/21 16:12:21;;;;;;;14.05;9.80;;;;;19.40;101340.00;;;;10495353;28;20249;-74
2021/04/21 16:17:23;;;;;;;10.38;9.07;;;;;18.90;101338.00;;;;10480642;28;20260;-75
2021/04/21 16:22:24;;;;;;;13.88;9.40;;;;;18.20;101336.00;;;;10456493;28;20201;-75
2021/04/21 16:27:26;;;;;;;10.52;8.57;;;;;17.90;101337.00;;;;10469956;28;20686;-74
2021/04/21 16:32:28;;;;;;;12.88;8.35;;;;;17.50;101340.00;;;;10472237;28;20586;-75
2021/04/21 16:37:29;;;;;;;9.38;7.30;;;;;17.20;101342.00;;;;10443591;28;20216;-74
2021/04/21 16:42:31;;;;;;;11.30;7.00;;;;;16.70;101364.00;;;;10469906;28;20266;-75
2021/04/21 16:47:32;;;;;;;11.73;6.10;;;;;16.50;101361.00;;;;10499122;28;20244;-74
2021/04/21 16:52:35;;;;;;;11.70;6.23;;;;;16.30;101364.00;;;;10463482;28;20248;-74
2021/04/21 16:57:37;;;;;;;8.20;5.20;;;;;16.00;101377.00;;;;10450755;28;20263;-74
2021/04/21 17:02:42;;;;;;;9.77;5.57;;;;;15.80;101367.00;;;;10458214;28;20256;-75
2021/04/21 17:08:04;;;;;;;12.47;5.63;;;;;15.60;101377.00;;;;10462437;28;20300;-74
2021/04/21 17:13:17;;;;;;;10.13;4.90;;;;;15.30;101378.00;;;;10449073;28;20285;-75
2021/04/21 17:18:22;;;;;;;8.90;4.83;;;;;15.20;101380.00;;;;10455021;28;20276;-75
2021/04/21 17:23:23;;;;;;;9.40;5.57;;;;;15.10;101388.00;;;;10500789;28;20241;-74
2021/04/21 17:28:27;;;;;;;13.30;5.20;;;;;14.90;101386.00;;;;10473456;28;20248;-75
2021/04/21 17:33:29;;;;;;;8.97;5.70;;;;;14.70;101396.00;;;;10469810;28;20308;-75
2021/04/21 17:38:38;;;;;;;18.07;5.73;;;;;14.50;101409.00;;;;10448131;28;20194;-75
2021/04/21 17:43:42;;;;;;;12.43;6.37;;;;;14.30;101405.00;;;;10478518;28;20205;-75
2021/04/21 17:48:49;;;;;;;12.77;5.97;;;;;14.00;101407.00;;;;10440052;28;20197;-75
2021/04/21 17:53:55;;;;;;;10.17;5.60;;;;;13.80;101419.00;;;;10451742;28;20225;-75
2021/04/21 17:58:56;;;;;;;11.93;5.53;;;;;13.60;101430.00;;;;10486388;28;20292;-74
2021/04/21 18:04:00;;;;;;;11.27;6.73;;;;;13.30;101433.00;;;;10478809;28;20206;-75
2021/04/21 18:09:02;;;;;;;18.33;5.30;;;;;13.10;101442.00;;;;10472696;28;20950;-75
2021/04/21 18:14:04;;;;;;;18.93;5.60;;;;;12.80;101441.00;;;;10466036;28;20930;-75
2021/04/21 18:19:05;;;;;;;14.23;4.50;;;;;12.60;101451.00;;;;10496045;28;20236;-74
2021/04/21 18:24:07;;;;;;;10.97;4.70;;;;;12.40;101459.00;;;;10438086;28;20256;-75
2021/04/21 18:29:09;;;;;;;16.70;4.90;;;;;12.20;101468.00;;;;10485888;28;21217;-75
2021/04/21 18:34:11;;;;;;;12.97;4.13;;;;;12.00;101463.00;;;;10488386;28;20766;-75
2021/04/21 18:39:12;;;;;;;12.73;4.00;;;;;11.70;101485.00;;;;10473101;28;20832;-75
2021/04/21 18:44:14;;;;;;;13.67;4.33;;;;;11.50;101489.00;;;;10481554;28;20587;-75
2021/04/21 18:49:16;;;;;;;14.87;4.80;;;;;11.20;101494.00;;;;10455427;28;20201;-74
2021/04/21 18:54:17;;;;;;;15.83;4.17;;;;;11.00;101499.00;;;;10478518;28;20268;-75
2021/04/21 18:59:19;;;;;;;21.47;4.50;;;;;10.80;101508.00;;;;10487462;28;20206;-75
2021/04/21 19:04:20;;;;;;;18.00;4.23;;;;;10.60;101521.00;;;;10459441;28;20201;-74
2021/04/21 19:09:22;;;;;;;13.47;4.80;;;;;10.40;101527.00;;;;10485865;28;20205;-74
2021/04/21 19:14:27;;;;;;;15.97;4.17;;;;;10.20;101536.00;;;;10456185;28;20214;-74
2021/04/21 19:19:28;;;;;;;8.93;4.27;;;;;10.10;101543.00;;;;10475515;28;20225;-75
2021/04/21 19:24:36;;;;;;;12.90;3.93;;;;;9.90;101546.00;;;;10436656;28;20275;-75
2021/04/21 19:29:38;;;;;;;12.20;4.10;;;;;9.70;101549.00;;;;10475664;28;20202;-74
2021/04/21 19:34:47;;;;;;;10.93;3.50;;;;;9.60;101562.00;;;;10446442;28;20252;-74
2021/04/21 19:39:49;;;;;;;11.53;3.67;;;;;9.40;101567.00;;;;10490691;28;20281;-74
2021/04/21 19:45:00;;;;;;;9.73;3.27;;;;;9.30;101568.00;;;;10451214;28;20200;-74
2021/04/21 19:50:09;;;;;;;9.70;3.43;;;;;9.20;101578.00;;;;10457646;28;20678;-74
2021/04/21 19:55:22;;;;;;;16.90;7.57;;;;;9.00;101580.00;;;;10452790;28;20236;-75
2021/04/21 20:00:23;;;;;;;52.10;48.07;;;;;8.90;101583.00;;;;10453143;28;20215;-75
2021/04/21 20:05:34;;;;;;;9.83;4.93;;;;;8.80;101588.00;;;;10488501;28;20562;-75
2021/04/21 20:10:35;;;;;;;9.90;3.77;;;;;8.70;101603.00;;;;10472420;28;20390;-75
2021/04/21 20:15:37;;;;;;;12.80;3.60;;;;;8.60;101609.00;;;;10482683;28;20930;-75
2021/04/21 20:20:38;;;;;;;13.80;3.30;;;;;8.50;101615.00;;;;10467188;28;20287;-75
2021/04/21 20:25:40;;;;;;;10.90;3.10;;;;;8.40;101608.00;;;;10468053;28;20248;-75
2021/04/21 20:30:41;;;;;;;13.67;2.90;;;;;8.20;101618.00;;;;10483724;28;20611;-74
2021/04/21 20:35:44;;;;;;;10.23;2.83;;;;;8.10;101621.00;;;;10467806;28;20683;-74
2021/04/21 20:40:45;;;;;;;10.83;2.67;;;;;8.00;101633.00;;;;10466992;28;20290;-75
2021/04/21 20:45:46;;;;;;;8.07;2.00;;;;;7.90;101639.00;;;;10500337;28;20277;-75
2021/04/21 20:50:48;;;;;;;18.83;3.00;;;;;7.80;101640.00;;;;10453517;28;20230;-74
2021/04/21 20:55:49;;;;;;;6.47;2.00;;;;;7.70;101653.00;;;;10471813;28;20190;-75
2021/04/21 21:00:53;;;;;;;9.30;2.07;;;;;7.60;101658.00;;;;10501869;28;20657;-75
2021/04/21 21:05:55;;;;;;;8.33;2.17;;;;;7.50;101669.00;;;;10473304;28;20216;-75
2021/04/21 21:10:56;;;;;;;8.73;2.03;;;;;7.40;101677.00;;;;10442601;28;20329;-75
2021/04/21 21:15:57;;;;;;;6.87;1.93;;;;;7.30;101680.00;;;;10492137;28;20549;-76
2021/04/21 21:20:59;;;;;;;5.03;1.60;;;;;7.20;101688.00;;;;10485103;28;20248;-75
2021/04/21 21:26:01;;;;;;;8.37;2.40;;;;;7.10;101688.00;;;;10466369;28;20202;-76
2021/04/21 21:31:02;;;;;;;8.23;1.70;;;;;7.10;101694.00;;;;10434188;28;20213;-75
2021/04/21 21:36:04;;;;;;;10.67;2.13;;;;;7.00;101693.00;;;;10486416;28;20285;-75
2021/04/21 21:41:14;;;;;;;5.60;1.73;;;;;6.90;101697.00;;;;10445949;28;20689;-75
2021/04/21 21:46:15;;;;;;;12.40;1.77;;;;;6.80;101692.00;;;;10448322;28;20205;-76
2021/04/21 21:51:17;;;;;;;8.13;2.13;;;;;6.80;101713.00;;;;10469815;28;21064;-76
2021/04/21 21:56:18;;;;;;;11.13;2.10;;;;;6.70;101706.00;;;;10449816;28;20718;-75
2021/04/21 22:01:20;;;;;;;8.33;1.93;;;;;6.60;101705.00;;;;10466295;28;20680;-76
2021/04/21 22:06:21;;;;;;;11.23;2.70;;;;;6.60;101714.00;;;;10461472;28;20295;-75
2021/04/21 22:11:24;;;;;;;10.17;2.30;;;;;6.50;101720.00;;;;10453870;28;20220;-76
2021/04/21 22:16:30;;;;;;;5.23;1.90;;;;;6.40;101728.00;;;;10470752;28;20198;-76
2021/04/21 22:21:31;;;;;;;10.23;2.30;;;;;6.40;101724.00;;;;10470351;28;20201;-76
2021/04/21 22:26:32;;;;;;;8.30;2.27;;;;;6.30;101740.00;;;;10454683;28;20202;-76
2021/04/21 22:31:35;;;;;;;10.70;2.43;;;;;6.20;101742.00;;;;10469806;28;20712;-75
2021/04/21 22:36:38;;;;;;;8.37;2.30;;;;;6.10;101744.00;;;;10469938;28;20182;-76
2021/04/21 22:41:40;;;;;;;8.03;2.70;;;;;6.10;101753.00;;;;10486702;28;20648;-76
2021/04/21 22:46:42;;;;;;;8.67;1.90;;;;;6.00;101752.00;;;;10467316;28;20247;-76
2021/04/21 22:51:44;;;;;;;9.30;2.03;;;;;5.90;101752.00;;;;10495697;28;20213;-75
2021/04/21 22:56:46;;;;;;;12.23;2.70;;;;;5.80;101765.00;;;;10510302;28;20205;-75
2021/04/21 23:01:47;;;;;;;9.30;2.10;;;;;5.70;101763.00;;;;10477943;28;20190;-75
2021/04/21 23:06:48;;;;;;;11.57;2.50;;;;;5.60;101773.00;;;;10493699;28;20283;-75
2021/04/21 23:11:50;;;;;;;8.23;2.60;;;;;5.50;101781.00;;;;10477674;28;20209;-75
2021/04/21 23:16:51;;;;;;;9.33;2.43;;;;;5.50;101780.00;;;;10492968;28;20216;-75
2021/04/21 23:21:53;;;;;;;10.93;2.77;;;;;5.40;101791.00;;;;10460315;28;20300;-73
2021/04/21 23:26:54;;;;;;;14.03;3.10;;;;;5.30;101796.00;;;;10492922;28;20201;-75
2021/04/21 23:31:55;;;;;;;10.17;2.77;;;;;5.20;101795.00;;;;10459933;28;20248;-75
2021/04/21 23:36:57;;;;;;;18.93;3.33;;;;;5.10;101809.00;;;;10476145;28;20189;-75
2021/04/21 23:41:58;;;;;;;14.30;3.20;;;;;5.10;101809.00;;;;10460467;28;20198;-75
2021/04/21 23:46:59;;;;;;;11.13;3.20;;;;;5.00;101804.00;;;;10508851;28;20193;-75
2021/04/21 23:52:01;;;;;;;13.50;3.17;;;;;4.90;101812.00;;;;10492913;28;20210;-75
2021/04/21 23:57:04;;;;;;;12.17;3.43;;;;;4.90;101819.00;;;;10456214;28;20205;-75
